sensor_id;sensor_type;location;lat;lon;timestamp;temperature;humidity
31729;DHT22;18309;43.658;1.312;2023-05-19T00:01:58;14.40;94.70
31729;DHT22;18309;43.658;1.312;2023-05-19T00:04:30;14.40;94.90
31729;DHT22;18309;43.658;1.312;2023-05-19T00:06:58;14.40;94.90
31729;DHT22;18309;43.658;1.312;2023-05-19T00:09:24;14.40;94.90
31729;DHT22;18309;43.658;1.312;2023-05-19T00:11:50;14.40;94.90
31729;DHT22;18309;43.658;1.312;2023-05-19T00:14:16;14.40;94.90
31729;DHT22;18309;43.658;1.312;2023-05-19T00:16:42;14.40;95.00
31729;DHT22;18309;43.658;1.312;2023-05-19T00:19:07;14.40;95.00
31729;DHT22;18309;43.658;1.312;2023-05-19T00:21:35;14.40;95.00
31729;DHT22;18309;43.658;1.312;2023-05-19T00:24:02;14.40;95.10
31729;DHT22;18309;43.658;1.312;2023-05-19T00:26:28;14.30;95.00
31729;DHT22;18309;43.658;1.312;2023-05-19T00:28:54;14.30;95.00
31729;DHT22;18309;43.658;1.312;2023-05-19T00:31:20;14.30;95.10
31729;DHT22;18309;43.658;1.312;2023-05-19T00:33:45;14.30;95.20
31729;DHT22;18309;43.658;1.312;2023-05-19T00:36:11;14.30;95.30
31729;DHT22;18309;43.658;1.312;2023-05-19T00:38:37;14.30;95.40
31729;DHT22;18309;43.658;1.312;2023-05-19T00:41:04;14.30;95.50
31729;DHT22;18309;43.658;1.312;2023-05-19T00:43:30;14.30;95.50
31729;DHT22;18309;43.658;1.312;2023-05-19T00:45:56;14.30;95.60
31729;DHT22;18309;43.658;1.312;2023-05-19T00:48:24;14.30;95.60
31729;DHT22;18309;43.658;1.312;2023-05-19T00:50:50;14.20;95.70
31729;DHT22;18309;43.658;1.312;2023-05-19T00:53:17;14.30;95.80
31729;DHT22;18309;43.658;1.312;2023-05-19T00:55:43;14.30;95.90
31729;DHT22;18309;43.658;1.312;2023-05-19T00:58:10;14.30;95.90
31729;DHT22;18309;43.658;1.312;2023-05-19T01:00:36;14.20;96.00
31729;DHT22;18309;43.658;1.312;2023-05-19T01:03:05;14.20;96.00
31729;DHT22;18309;43.658;1.312;2023-05-19T01:05:39;14.20;96.10
31729;DHT22;18309;43.658;1.312;2023-05-19T01:08:18;14.20;96.20
31729;DHT22;18309;43.658;1.312;2023-05-19T01:10:44;14.20;96.40
31729;DHT22;18309;43.658;1.312;2023-05-19T01:13:10;14.20;96.20
31729;DHT22;18309;43.658;1.312;2023-05-19T01:15:56;14.20;96.40
31729;DHT22;18309;43.658;1.312;2023-05-19T01:18:31;14.20;96.70
31729;DHT22;18309;43.658;1.312;2023-05-19T01:29:41;14.20;97.80
31729;DHT22;18309;43.658;1.312;2023-05-19T01:32:10;14.10;97.70
31729;DHT22;18309;43.658;1.312;2023-05-19T01:34:41;14.10;97.80
31729;DHT22;18309;43.658;1.312;2023-05-19T01:37:08;14.10;97.90
31729;DHT22;18309;43.658;1.312;2023-05-19T01:39:34;14.10;98.10
31729;DHT22;18309;43.658;1.312;2023-05-19T01:42:01;14.10;98.30
31729;DHT22;18309;43.658;1.312;2023-05-19T01:44:28;14.10;98.30
31729;DHT22;18309;43.658;1.312;2023-05-19T01:46:54;14.00;98.30
31729;DHT22;18309;43.658;1.312;2023-05-19T01:49:20;14.00;98.30
31729;DHT22;18309;43.658;1.312;2023-05-19T01:51:48;14.00;98.40
31729;DHT22;18309;43.658;1.312;2023-05-19T01:54:14;14.00;98.40
31729;DHT22;18309;43.658;1.312;2023-05-19T01:56:51;14.00;98.40
31729;DHT22;18309;43.658;1.312;2023-05-19T02:02:23;13.90;98.90
31729;DHT22;18309;43.658;1.312;2023-05-19T02:04:56;13.90;99.00
31729;DHT22;18309;43.658;1.312;2023-05-19T02:07:34;13.90;99.00
31729;DHT22;18309;43.658;1.312;2023-05-19T02:10:09;13.90;99.10
31729;DHT22;18309;43.658;1.312;2023-05-19T02:12:37;13.90;99.10
31729;DHT22;18309;43.658;1.312;2023-05-19T02:15:17;13.90;99.30
31729;DHT22;18309;43.658;1.312;2023-05-19T02:17:46;13.90;99.50
31729;DHT22;18309;43.658;1.312;2023-05-19T02:20:15;13.80;99.60
31729;DHT22;18309;43.658;1.312;2023-05-19T02:22:41;13.80;99.50
31729;DHT22;18309;43.658;1.312;2023-05-19T02:25:07;13.80;99.60
31729;DHT22;18309;43.658;1.312;2023-05-19T02:27:36;13.80;99.60
31729;DHT22;18309;43.658;1.312;2023-05-19T02:30:06;13.80;99.70
31729;DHT22;18309;43.658;1.312;2023-05-19T02:32:33;13.80;99.80
31729;DHT22;18309;43.658;1.312;2023-05-19T02:34:58;13.80;99.90
31729;DHT22;18309;43.658;1.312;2023-05-19T02:37:24;13.80;99.90
31729;DHT22;18309;43.658;1.312;2023-05-19T02:39:53;13.70;99.90
31729;DHT22;18309;43.658;1.312;2023-05-19T02:42:19;13.70;99.90
31729;DHT22;18309;43.658;1.312;2023-05-19T02:44:45;13.70;99.90
31729;DHT22;18309;43.658;1.312;2023-05-19T02:47:12;13.60;99.90
31729;DHT22;18309;43.658;1.312;2023-05-19T02:49:37;13.60;99.90
31729;DHT22;18309;43.658;1.312;2023-05-19T02:52:04;13.60;99.90
31729;DHT22;18309;43.658;1.312;2023-05-19T02:54:31;13.70;99.90
31729;DHT22;18309;43.658;1.312;2023-05-19T02:56:58;13.60;99.90
31729;DHT22;18309;43.658;1.312;2023-05-19T02:59:24;13.60;99.90
31729;DHT22;18309;43.658;1.312;2023-05-19T03:01:54;13.50;99.90
31729;DHT22;18309;43.658;1.312;2023-05-19T03:04:20;13.60;99.90
31729;DHT22;18309;43.658;1.312;2023-05-19T03:06:45;13.60;99.90
31729;DHT22;18309;43.658;1.312;2023-05-19T03:09:12;13.50;99.90
31729;DHT22;18309;43.658;1.312;2023-05-19T03:11:38;13.50;99.90
31729;DHT22;18309;43.658;1.312;2023-05-19T03:14:04;13.50;99.90
31729;DHT22;18309;43.658;1.312;2023-05-19T03:16:29;13.50;99.90
31729;DHT22;18309;43.658;1.312;2023-05-19T03:18:56;13.50;99.90
31729;DHT22;18309;43.658;1.312;2023-05-19T03:21:21;13.50;99.90
31729;DHT22;18309;43.658;1.312;2023-05-19T03:23:48;13.50;99.90
31729;DHT22;18309;43.658;1.312;2023-05-19T03:26:14;13.50;99.90
31729;DHT22;18309;43.658;1.312;2023-05-19T03:28:40;13.50;99.90
31729;DHT22;18309;43.658;1.312;2023-05-19T03:31:06;13.50;99.90
31729;DHT22;18309;43.658;1.312;2023-05-19T03:33:31;13.50;99.90
31729;DHT22;18309;43.658;1.312;2023-05-19T03:35:57;13.50;99.90
31729;DHT22;18309;43.658;1.312;2023-05-19T03:38:23;13.40;99.90
31729;DHT22;18309;43.658;1.312;2023-05-19T03:40:49;13.50;99.90
31729;DHT22;18309;43.658;1.312;2023-05-19T03:43:15;13.40;99.90
31729;DHT22;18309;43.658;1.312;2023-05-19T03:45:41;13.40;99.90
31729;DHT22;18309;43.658;1.312;2023-05-19T03:48:06;13.40;99.90
31729;DHT22;18309;43.658;1.312;2023-05-19T03:50:32;13.40;99.90
31729;DHT22;18309;43.658;1.312;2023-05-19T03:52:58;13.30;99.90
31729;DHT22;18309;43.658;1.312;2023-05-19T03:55:25;13.30;99.90
31729;DHT22;18309;43.658;1.312;2023-05-19T03:57:51;13.30;99.90
31729;DHT22;18309;43.658;1.312;2023-05-19T04:00:20;13.30;99.90
31729;DHT22;18309;43.658;1.312;2023-05-19T04:02:46;13.30;99.90
31729;DHT22;18309;43.658;1.312;2023-05-19T04:05:11;13.30;99.90
31729;DHT22;18309;43.658;1.312;2023-05-19T04:07:37;13.30;99.90
31729;DHT22;18309;43.658;1.312;2023-05-19T04:10:07;13.30;99.90
31729;DHT22;18309;43.658;1.312;2023-05-19T04:12:32;13.30;99.90
31729;DHT22;18309;43.658;1.312;2023-05-19T04:14:58;13.30;99.90
31729;DHT22;18309;43.658;1.312;2023-05-19T04:17:24;13.30;99.90
31729;DHT22;18309;43.658;1.312;2023-05-19T04:19:54;13.30;99.90
31729;DHT22;18309;43.658;1.312;2023-05-19T04:22:20;13.30;99.90
31729;DHT22;18309;43.658;1.312;2023-05-19T04:24:46;13.30;99.90
31729;DHT22;18309;43.658;1.312;2023-05-19T04:27:12;13.30;99.90
31729;DHT22;18309;43.658;1.312;2023-05-19T04:29:38;13.20;99.90
31729;DHT22;18309;43.658;1.312;2023-05-19T04:32:05;13.30;99.90
31729;DHT22;18309;43.658;1.312;2023-05-19T04:34:33;13.20;99.90
31729;DHT22;18309;43.658;1.312;2023-05-19T04:37:00;13.20;99.90
31729;DHT22;18309;43.658;1.312;2023-05-19T04:39:26;13.20;99.90
31729;DHT22;18309;43.658;1.312;2023-05-19T04:41:52;13.20;99.90
31729;DHT22;18309;43.658;1.312;2023-05-19T04:44:19;13.20;99.90
31729;DHT22;18309;43.658;1.312;2023-05-19T04:46:45;13.20;99.90
31729;DHT22;18309;43.658;1.312;2023-05-19T04:49:11;13.20;99.90
31729;DHT22;18309;43.658;1.312;2023-05-19T04:51:37;13.20;99.90
31729;DHT22;18309;43.658;1.312;2023-05-19T04:54:08;13.20;99.90
31729;DHT22;18309;43.658;1.312;2023-05-19T04:56:34;13.20;99.90
31729;DHT22;18309;43.658;1.312;2023-05-19T04:59:00;13.20;99.90
31729;DHT22;18309;43.658;1.312;2023-05-19T05:01:26;13.10;99.90
31729;DHT22;18309;43.658;1.312;2023-05-19T05:03:53;13.10;99.90
31729;DHT22;18309;43.658;1.312;2023-05-19T05:06:23;13.20;99.90
31729;DHT22;18309;43.658;1.312;2023-05-19T05:08:49;13.10;99.90
31729;DHT22;18309;43.658;1.312;2023-05-19T05:11:16;13.10;99.90
31729;DHT22;18309;43.658;1.312;2023-05-19T05:13:42;13.10;99.90
31729;DHT22;18309;43.658;1.312;2023-05-19T05:16:08;13.10;99.90
31729;DHT22;18309;43.658;1.312;2023-05-19T05:18:34;13.10;99.90
31729;DHT22;18309;43.658;1.312;2023-05-19T05:21:03;13.10;99.90
31729;DHT22;18309;43.658;1.312;2023-05-19T05:23:29;13.10;99.90
31729;DHT22;18309;43.658;1.312;2023-05-19T05:25:55;13.10;99.90
31729;DHT22;18309;43.658;1.312;2023-05-19T05:28:21;13.10;99.90
31729;DHT22;18309;43.658;1.312;2023-05-19T05:30:47;13.10;99.90
31729;DHT22;18309;43.658;1.312;2023-05-19T05:33:13;13.10;99.90
31729;DHT22;18309;43.658;1.312;2023-05-19T05:35:39;13.10;99.90
31729;DHT22;18309;43.658;1.312;2023-05-19T05:38:05;13.10;99.90
31729;DHT22;18309;43.658;1.312;2023-05-19T05:40:31;13.20;99.90
31729;DHT22;18309;43.658;1.312;2023-05-19T05:42:56;13.10;99.90
31729;DHT22;18309;43.658;1.312;2023-05-19T05:45:26;13.10;99.90
31729;DHT22;18309;43.658;1.312;2023-05-19T05:47:52;13.10;99.90
31729;DHT22;18309;43.658;1.312;2023-05-19T05:50:20;13.10;99.90
31729;DHT22;18309;43.658;1.312;2023-05-19T05:52:46;13.10;99.90
31729;DHT22;18309;43.658;1.312;2023-05-19T05:55:13;13.10;99.90
31729;DHT22;18309;43.658;1.312;2023-05-19T05:57:39;13.10;99.90
31729;DHT22;18309;43.658;1.312;2023-05-19T06:00:07;13.10;99.90
31729;DHT22;18309;43.658;1.312;2023-05-19T06:02:43;13.10;99.90
31729;DHT22;18309;43.658;1.312;2023-05-19T06:05:11;13.10;99.90
31729;DHT22;18309;43.658;1.312;2023-05-19T06:07:39;13.10;99.90
31729;DHT22;18309;43.658;1.312;2023-05-19T06:10:05;13.00;99.90
31729;DHT22;18309;43.658;1.312;2023-05-19T06:12:32;12.60;99.90
31729;DHT22;18309;43.658;1.312;2023-05-19T06:14:57;12.50;99.90
31729;DHT22;18309;43.658;1.312;2023-05-19T06:17:23;12.50;99.90
31729;DHT22;18309;43.658;1.312;2023-05-19T06:19:49;12.40;99.90
31729;DHT22;18309;43.658;1.312;2023-05-19T06:22:14;12.50;99.90
31729;DHT22;18309;43.658;1.312;2023-05-19T06:24:40;12.50;99.90
31729;DHT22;18309;43.658;1.312;2023-05-19T06:27:06;12.30;99.90
31729;DHT22;18309;43.658;1.312;2023-05-19T06:29:32;12.20;99.90
31729;DHT22;18309;43.658;1.312;2023-05-19T06:31:58;12.10;99.90
31729;DHT22;18309;43.658;1.312;2023-05-19T06:34:23;12.00;99.90
31729;DHT22;18309;43.658;1.312;2023-05-19T06:36:49;12.10;99.90
31729;DHT22;18309;43.658;1.312;2023-05-19T06:39:15;12.10;99.90
31729;DHT22;18309;43.658;1.312;2023-05-19T06:41:40;12.00;99.90
31729;DHT22;18309;43.658;1.312;2023-05-19T06:44:06;12.10;99.90
31729;DHT22;18309;43.658;1.312;2023-05-19T06:46:35;12.00;99.90
31729;DHT22;18309;43.658;1.312;2023-05-19T06:49:00;12.10;99.90
31729;DHT22;18309;43.658;1.312;2023-05-19T06:51:26;12.00;99.90
31729;DHT22;18309;43.658;1.312;2023-05-19T06:53:52;11.90;99.90
31729;DHT22;18309;43.658;1.312;2023-05-19T06:56:18;11.90;99.90
31729;DHT22;18309;43.658;1.312;2023-05-19T06:58:44;11.80;99.90
31729;DHT22;18309;43.658;1.312;2023-05-19T07:01:10;11.90;99.90
31729;DHT22;18309;43.658;1.312;2023-05-19T07:03:35;11.80;99.90
31729;DHT22;18309;43.658;1.312;2023-05-19T07:06:01;11.80;99.90
31729;DHT22;18309;43.658;1.312;2023-05-19T07:08:27;11.80;99.90
31729;DHT22;18309;43.658;1.312;2023-05-19T07:10:53;11.70;99.90
31729;DHT22;18309;43.658;1.312;2023-05-19T07:13:20;11.70;99.90
31729;DHT22;18309;43.658;1.312;2023-05-19T07:15:46;11.70;99.90
31729;DHT22;18309;43.658;1.312;2023-05-19T07:18:13;11.70;99.90
31729;DHT22;18309;43.658;1.312;2023-05-19T07:20:39;11.70;99.90
31729;DHT22;18309;43.658;1.312;2023-05-19T07:23:05;11.80;99.90
31729;DHT22;18309;43.658;1.312;2023-05-19T07:25:31;11.70;99.90
31729;DHT22;18309;43.658;1.312;2023-05-19T07:27:57;11.70;99.90
31729;DHT22;18309;43.658;1.312;2023-05-19T07:30:25;11.70;99.90
31729;DHT22;18309;43.658;1.312;2023-05-19T07:32:50;11.80;99.90
31729;DHT22;18309;43.658;1.312;2023-05-19T07:35:16;11.70;99.90
31729;DHT22;18309;43.658;1.312;2023-05-19T07:37:42;11.70;99.90
31729;DHT22;18309;43.658;1.312;2023-05-19T07:40:08;11.60;99.90
31729;DHT22;18309;43.658;1.312;2023-05-19T07:42:34;11.60;99.90
31729;DHT22;18309;43.658;1.312;2023-05-19T07:45:00;11.70;99.90
31729;DHT22;18309;43.658;1.312;2023-05-19T07:47:28;11.60;99.90
31729;DHT22;18309;43.658;1.312;2023-05-19T07:49:53;11.50;99.90
31729;DHT22;18309;43.658;1.312;2023-05-19T07:52:19;11.50;99.90
31729;DHT22;18309;43.658;1.312;2023-05-19T07:54:45;11.60;99.90
31729;DHT22;18309;43.658;1.312;2023-05-19T07:57:11;11.60;99.90
31729;DHT22;18309;43.658;1.312;2023-05-19T07:59:36;11.50;99.90
31729;DHT22;18309;43.658;1.312;2023-05-19T08:02:02;11.60;99.90
31729;DHT22;18309;43.658;1.312;2023-05-19T08:04:28;11.60;99.90
31729;DHT22;18309;43.658;1.312;2023-05-19T08:06:53;11.60;99.90
31729;DHT22;18309;43.658;1.312;2023-05-19T08:09:19;11.60;99.90
31729;DHT22;18309;43.658;1.312;2023-05-19T08:11:45;11.60;99.90
31729;DHT22;18309;43.658;1.312;2023-05-19T08:14:14;11.70;99.90
31729;DHT22;18309;43.658;1.312;2023-05-19T08:16:40;11.80;99.90
31729;DHT22;18309;43.658;1.312;2023-05-19T08:19:07;11.80;99.90
31729;DHT22;18309;43.658;1.312;2023-05-19T08:21:33;11.90;99.90
31729;DHT22;18309;43.658;1.312;2023-05-19T08:24:00;11.80;99.90
31729;DHT22;18309;43.658;1.312;2023-05-19T08:26:26;11.80;99.90
31729;DHT22;18309;43.658;1.312;2023-05-19T08:28:52;11.80;99.90
31729;DHT22;18309;43.658;1.312;2023-05-19T08:31:18;11.80;99.90
31729;DHT22;18309;43.658;1.312;2023-05-19T08:33:44;11.80;99.90
31729;DHT22;18309;43.658;1.312;2023-05-19T08:36:10;11.80;99.90
31729;DHT22;18309;43.658;1.312;2023-05-19T08:38:36;11.90;99.90
31729;DHT22;18309;43.658;1.312;2023-05-19T08:41:02;12.00;99.90
31729;DHT22;18309;43.658;1.312;2023-05-19T08:43:27;12.00;99.90
31729;DHT22;18309;43.658;1.312;2023-05-19T08:45:53;12.10;99.90
31729;DHT22;18309;43.658;1.312;2023-05-19T08:48:21;12.10;99.90
31729;DHT22;18309;43.658;1.312;2023-05-19T08:53:36;12.10;99.90
31729;DHT22;18309;43.658;1.312;2023-05-19T08:56:10;12.10;99.90
31729;DHT22;18309;43.658;1.312;2023-05-19T08:58:39;12.10;99.90
31729;DHT22;18309;43.658;1.312;2023-05-19T09:01:07;12.00;99.90
31729;DHT22;18309;43.658;1.312;2023-05-19T09:03:33;12.10;99.90
31729;DHT22;18309;43.658;1.312;2023-05-19T09:06:06;12.20;99.90
31729;DHT22;18309;43.658;1.312;2023-05-19T09:08:33;12.30;99.90
31729;DHT22;18309;43.658;1.312;2023-05-19T09:10:59;12.30;99.90
31729;DHT22;18309;43.658;1.312;2023-05-19T09:13:25;12.30;99.90
31729;DHT22;18309;43.658;1.312;2023-05-19T09:15:52;12.30;99.90
31729;DHT22;18309;43.658;1.312;2023-05-19T09:18:18;12.30;99.90
31729;DHT22;18309;43.658;1.312;2023-05-19T09:20:44;12.30;99.90
31729;DHT22;18309;43.658;1.312;2023-05-19T09:23:16;12.30;99.90
31729;DHT22;18309;43.658;1.312;2023-05-19T09:25:50;12.40;99.90
31729;DHT22;18309;43.658;1.312;2023-05-19T09:28:35;12.40;99.90
31729;DHT22;18309;43.658;1.312;2023-05-19T09:31:08;12.40;99.90
31729;DHT22;18309;43.658;1.312;2023-05-19T09:33:35;12.50;99.90
31729;DHT22;18309;43.658;1.312;2023-05-19T09:36:02;12.40;99.90
31729;DHT22;18309;43.658;1.312;2023-05-19T09:38:29;12.50;99.90
31729;DHT22;18309;43.658;1.312;2023-05-19T09:40:56;12.40;99.90
31729;DHT22;18309;43.658;1.312;2023-05-19T09:43:22;12.50;99.90
31729;DHT22;18309;43.658;1.312;2023-05-19T09:48:30;12.60;99.90
31729;DHT22;18309;43.658;1.312;2023-05-19T09:50:55;12.80;99.90
31729;DHT22;18309;43.658;1.312;2023-05-19T09:53:23;12.90;99.90
31729;DHT22;18309;43.658;1.312;2023-05-19T09:55:53;12.90;99.90
31729;DHT22;18309;43.658;1.312;2023-05-19T09:58:21;12.70;99.90
31729;DHT22;18309;43.658;1.312;2023-05-19T10:00:47;12.70;99.90
31729;DHT22;18309;43.658;1.312;2023-05-19T10:03:14;12.70;99.90
31729;DHT22;18309;43.658;1.312;2023-05-19T10:05:42;12.80;99.90
31729;DHT22;18309;43.658;1.312;2023-05-19T10:08:08;12.80;99.90
31729;DHT22;18309;43.658;1.312;2023-05-19T10:10:36;12.90;99.90
31729;DHT22;18309;43.658;1.312;2023-05-19T10:13:02;13.10;99.90
31729;DHT22;18309;43.658;1.312;2023-05-19T10:15:29;13.20;99.90
31729;DHT22;18309;43.658;1.312;2023-05-19T10:17:55;13.40;99.90
31729;DHT22;18309;43.658;1.312;2023-05-19T10:20:21;13.40;99.90
31729;DHT22;18309;43.658;1.312;2023-05-19T10:22:47;13.40;99.90
31729;DHT22;18309;43.658;1.312;2023-05-19T10:25:13;13.50;99.90
31729;DHT22;18309;43.658;1.312;2023-05-19T10:28:00;13.70;99.90
31729;DHT22;18309;43.658;1.312;2023-05-19T10:30:36;13.60;99.90
31729;DHT22;18309;43.658;1.312;2023-05-19T10:33:05;13.80;99.90
31729;DHT22;18309;43.658;1.312;2023-05-19T10:46:30;14.30;99.90
31729;DHT22;18309;43.658;1.312;2023-05-19T10:48:56;14.00;99.90
31729;DHT22;18309;43.658;1.312;2023-05-19T10:51:30;14.00;99.90
31729;DHT22;18309;43.658;1.312;2023-05-19T10:53:56;14.10;99.90
31729;DHT22;18309;43.658;1.312;2023-05-19T10:56:30;14.20;99.90
31729;DHT22;18309;43.658;1.312;2023-05-19T10:58:58;14.30;99.90
31729;DHT22;18309;43.658;1.312;2023-05-19T11:01:35;14.10;99.90
31729;DHT22;18309;43.658;1.312;2023-05-19T11:04:06;13.80;99.90
31729;DHT22;18309;43.658;1.312;2023-05-19T11:06:35;13.80;99.90
31729;DHT22;18309;43.658;1.312;2023-05-19T11:09:16;13.80;99.90
31729;DHT22;18309;43.658;1.312;2023-05-19T11:11:50;13.80;99.90
31729;DHT22;18309;43.658;1.312;2023-05-19T11:14:21;13.70;99.90
31729;DHT22;18309;43.658;1.312;2023-05-19T11:16:49;13.70;99.90
31729;DHT22;18309;43.658;1.312;2023-05-19T11:21:51;13.60;99.90
31729;DHT22;18309;43.658;1.312;2023-05-19T11:24:37;13.50;99.90
31729;DHT22;18309;43.658;1.312;2023-05-19T11:27:33;13.60;99.90
31729;DHT22;18309;43.658;1.312;2023-05-19T11:30:09;13.60;99.90
31729;DHT22;18309;43.658;1.312;2023-05-19T11:32:43;13.50;99.90
31729;DHT22;18309;43.658;1.312;2023-05-19T11:35:11;13.40;99.90
31729;DHT22;18309;43.658;1.312;2023-05-19T11:37:37;13.40;99.90
31729;DHT22;18309;43.658;1.312;2023-05-19T11:40:06;13.50;99.90
31729;DHT22;18309;43.658;1.312;2023-05-19T11:42:33;13.50;99.90
31729;DHT22;18309;43.658;1.312;2023-05-19T11:44:59;13.50;99.90
31729;DHT22;18309;43.658;1.312;2023-05-19T11:47:26;13.40;99.90
31729;DHT22;18309;43.658;1.312;2023-05-19T11:49:53;13.50;99.90
31729;DHT22;18309;43.658;1.312;2023-05-19T11:52:24;13.50;99.90
31729;DHT22;18309;43.658;1.312;2023-05-19T11:54:51;13.50;99.90
31729;DHT22;18309;43.658;1.312;2023-05-19T11:57:18;13.60;99.90
31729;DHT22;18309;43.658;1.312;2023-05-19T11:59:43;13.60;99.90
31729;DHT22;18309;43.658;1.312;2023-05-19T12:02:19;13.40;99.90
31729;DHT22;18309;43.658;1.312;2023-05-19T12:04:46;13.40;99.90
31729;DHT22;18309;43.658;1.312;2023-05-19T12:07:12;13.50;99.90
31729;DHT22;18309;43.658;1.312;2023-05-19T12:09:42;13.50;99.90
31729;DHT22;18309;43.658;1.312;2023-05-19T12:12:15;13.50;99.90
31729;DHT22;18309;43.658;1.312;2023-05-19T12:14:42;13.60;99.90
31729;DHT22;18309;43.658;1.312;2023-05-19T12:17:18;13.70;99.90
31729;DHT22;18309;43.658;1.312;2023-05-19T12:19:45;13.70;99.90
31729;DHT22;18309;43.658;1.312;2023-05-19T12:22:12;13.70;99.90
31729;DHT22;18309;43.658;1.312;2023-05-19T12:24:39;13.70;99.90
31729;DHT22;18309;43.658;1.312;2023-05-19T12:27:22;13.70;99.90
31729;DHT22;18309;43.658;1.312;2023-05-19T12:29:52;13.80;99.90
31729;DHT22;18309;43.658;1.312;2023-05-19T12:32:22;13.90;99.90
31729;DHT22;18309;43.658;1.312;2023-05-19T12:34:49;13.90;99.90
31729;DHT22;18309;43.658;1.312;2023-05-19T12:37:14;14.00;99.90
31729;DHT22;18309;43.658;1.312;2023-05-19T12:39:41;14.00;99.90
31729;DHT22;18309;43.658;1.312;2023-05-19T12:42:08;14.10;99.90
31729;DHT22;18309;43.658;1.312;2023-05-19T12:44:37;14.20;99.90
31729;DHT22;18309;43.658;1.312;2023-05-19T12:47:06;14.40;99.90
31729;DHT22;18309;43.658;1.312;2023-05-19T12:49:33;14.60;99.90
31729;DHT22;18309;43.658;1.312;2023-05-19T12:52:02;14.80;99.90
31729;DHT22;18309;43.658;1.312;2023-05-19T12:54:32;14.90;99.90
31729;DHT22;18309;43.658;1.312;2023-05-19T12:56:58;15.10;99.90
31729;DHT22;18309;43.658;1.312;2023-05-19T12:59:24;15.30;99.90
31729;DHT22;18309;43.658;1.312;2023-05-19T13:01:57;16.10;99.90
31729;DHT22;18309;43.658;1.312;2023-05-19T13:04:24;17.10;97.70
31729;DHT22;18309;43.658;1.312;2023-05-19T13:06:51;17.80;96.80
31729;DHT22;18309;43.658;1.312;2023-05-19T13:09:17;18.60;94.00
31729;DHT22;18309;43.658;1.312;2023-05-19T13:11:44;19.90;93.10
31729;DHT22;18309;43.658;1.312;2023-05-19T13:14:13;21.00;91.30
31729;DHT22;18309;43.658;1.312;2023-05-19T13:16:40;18.70;92.30
31729;DHT22;18309;43.658;1.312;2023-05-19T13:19:05;17.40;95.10
31729;DHT22;18309;43.658;1.312;2023-05-19T13:21:31;17.00;95.90
31729;DHT22;18309;43.658;1.312;2023-05-19T13:23:57;16.90;96.50
31729;DHT22;18309;43.658;1.312;2023-05-19T13:26:22;17.00;96.30
31729;DHT22;18309;43.658;1.312;2023-05-19T13:28:48;17.00;96.40
31729;DHT22;18309;43.658;1.312;2023-05-19T13:31:14;16.50;97.00
31729;DHT22;18309;43.658;1.312;2023-05-19T13:33:40;16.40;97.40
31729;DHT22;18309;43.658;1.312;2023-05-19T13:36:05;16.50;96.70
31729;DHT22;18309;43.658;1.312;2023-05-19T13:38:31;16.50;96.60
31729;DHT22;18309;43.658;1.312;2023-05-19T13:40:57;16.50;97.60
31729;DHT22;18309;43.658;1.312;2023-05-19T13:43:23;16.50;97.40
31729;DHT22;18309;43.658;1.312;2023-05-19T13:45:48;16.40;97.70
31729;DHT22;18309;43.658;1.312;2023-05-19T13:48:14;16.40;97.40
31729;DHT22;18309;43.658;1.312;2023-05-19T13:50:40;16.40;97.10
31729;DHT22;18309;43.658;1.312;2023-05-19T13:53:06;16.40;97.50
31729;DHT22;18309;43.658;1.312;2023-05-19T13:55:32;16.60;97.30
31729;DHT22;18309;43.658;1.312;2023-05-19T13:57:58;16.50;96.90
31729;DHT22;18309;43.658;1.312;2023-05-19T14:00:24;16.60;97.10
31729;DHT22;18309;43.658;1.312;2023-05-19T14:02:49;16.40;97.00
31729;DHT22;18309;43.658;1.312;2023-05-19T14:05:15;16.30;97.30
31729;DHT22;18309;43.658;1.312;2023-05-19T14:07:41;16.40;98.10
31729;DHT22;18309;43.658;1.312;2023-05-19T14:10:07;16.50;97.50
31729;DHT22;18309;43.658;1.312;2023-05-19T14:12:34;16.70;97.50
31729;DHT22;18309;43.658;1.312;2023-05-19T14:15:00;16.50;97.40
31729;DHT22;18309;43.658;1.312;2023-05-19T14:17:26;16.60;97.80
31729;DHT22;18309;43.658;1.312;2023-05-19T14:19:53;16.70;98.00
31729;DHT22;18309;43.658;1.312;2023-05-19T14:22:18;16.80;97.70
31729;DHT22;18309;43.658;1.312;2023-05-19T14:24:44;16.70;97.80
31729;DHT22;18309;43.658;1.312;2023-05-19T14:27:10;16.70;97.30
31729;DHT22;18309;43.658;1.312;2023-05-19T14:29:37;16.70;97.30
31729;DHT22;18309;43.658;1.312;2023-05-19T14:32:02;16.90;97.50
31729;DHT22;18309;43.658;1.312;2023-05-19T14:34:30;16.70;97.50
31729;DHT22;18309;43.658;1.312;2023-05-19T14:36:55;16.70;97.60
31729;DHT22;18309;43.658;1.312;2023-05-19T14:39:21;16.60;97.50
31729;DHT22;18309;43.658;1.312;2023-05-19T14:41:47;16.60;97.70
31729;DHT22;18309;43.658;1.312;2023-05-19T14:44:15;16.50;97.50
31729;DHT22;18309;43.658;1.312;2023-05-19T14:46:41;16.60;97.20
31729;DHT22;18309;43.658;1.312;2023-05-19T14:49:06;16.60;97.60
31729;DHT22;18309;43.658;1.312;2023-05-19T14:51:32;16.50;97.60
31729;DHT22;18309;43.658;1.312;2023-05-19T14:53:58;16.50;97.40
31729;DHT22;18309;43.658;1.312;2023-05-19T14:56:24;16.40;97.20
31729;DHT22;18309;43.658;1.312;2023-05-19T14:58:50;16.50;97.10
31729;DHT22;18309;43.658;1.312;2023-05-19T15:01:16;16.60;97.30
31729;DHT22;18309;43.658;1.312;2023-05-19T15:03:41;16.50;97.60
31729;DHT22;18309;43.658;1.312;2023-05-19T15:06:08;16.40;97.10
31729;DHT22;18309;43.658;1.312;2023-05-19T15:08:35;16.40;97.40
31729;DHT22;18309;43.658;1.312;2023-05-19T15:11:02;16.30;97.20
31729;DHT22;18309;43.658;1.312;2023-05-19T15:13:28;16.30;97.70
31729;DHT22;18309;43.658;1.312;2023-05-19T15:15:54;16.20;97.80
31729;DHT22;18309;43.658;1.312;2023-05-19T15:18:20;16.10;97.90
31729;DHT22;18309;43.658;1.312;2023-05-19T15:20:46;16.10;98.10
31729;DHT22;18309;43.658;1.312;2023-05-19T15:23:12;16.00;97.90
31729;DHT22;18309;43.658;1.312;2023-05-19T15:25:39;15.90;98.10
31729;DHT22;18309;43.658;1.312;2023-05-19T15:28:05;15.80;98.60
31729;DHT22;18309;43.658;1.312;2023-05-19T15:30:30;15.80;98.50
31729;DHT22;18309;43.658;1.312;2023-05-19T15:32:56;15.80;98.60
31729;DHT22;18309;43.658;1.312;2023-05-19T15:35:22;15.70;98.70
31729;DHT22;18309;43.658;1.312;2023-05-19T15:37:48;15.60;98.80
31729;DHT22;18309;43.658;1.312;2023-05-19T15:40:13;15.60;98.80
31729;DHT22;18309;43.658;1.312;2023-05-19T15:42:39;15.50;98.90
31729;DHT22;18309;43.658;1.312;2023-05-19T15:45:05;15.50;98.80
31729;DHT22;18309;43.658;1.312;2023-05-19T15:47:32;15.40;99.10
31729;DHT22;18309;43.658;1.312;2023-05-19T15:49:58;15.50;99.00
31729;DHT22;18309;43.658;1.312;2023-05-19T15:52:23;15.50;99.30
31729;DHT22;18309;43.658;1.312;2023-05-19T15:54:49;15.30;99.40
31729;DHT22;18309;43.658;1.312;2023-05-19T15:57:15;15.30;99.50
31729;DHT22;18309;43.658;1.312;2023-05-19T15:59:40;15.30;99.70
31729;DHT22;18309;43.658;1.312;2023-05-19T16:02:06;15.20;99.70